sensor_id;sensor_type;location;lat;lon;timestamp;pressure;altitude;pressure_sealevel;temperature;humidity
12868;BME280;33517;49.866;8.320;2022-12-10T00:01:25;99470.72;;;2.93;81.46
12868;BME280;33517;49.866;8.320;2022-12-10T00:04:19;99477.41;;;2.95;82.13
12868;BME280;33517;49.866;8.320;2022-12-10T00:07:11;99473.84;;;2.96;81.61
12868;BME280;33517;49.866;8.320;2022-12-10T00:10:04;99475.47;;;2.97;81.53
12868;BME280;33517;49.866;8.320;2022-12-10T00:12:56;99472.88;;;2.97;81.55
12868;BME280;33517;49.866;8.320;2022-12-10T00:15:48;99483.28;;;2.97;81.94
12868;BME280;33517;49.866;8.320;2022-12-10T00:18:41;99485.06;;;2.97;82.18
12868;BME280;33517;49.866;8.320;2022-12-10T00:21:35;99489.31;;;2.98;81.65
12868;BME280;33517;49.866;8.320;2022-12-10T00:24:27;99484.66;;;2.92;81.68
12868;BME280;33517;49.866;8.320;2022-12-10T00:27:19;99483.16;;;2.89;81.95
12868;BME280;33517;49.866;8.320;2022-12-10T00:30:11;99489.16;;;2.90;82.43
12868;BME280;33517;49.866;8.320;2022-12-10T00:33:03;99484.41;;;2.85;82.15
12868;BME280;33517;49.866;8.320;2022-12-10T00:35:55;99486.19;;;2.85;82.42
12868;BME280;33517;49.866;8.320;2022-12-10T00:38:49;99476.72;;;2.83;82.80
12868;BME280;33517;49.866;8.320;2022-12-10T00:41:41;99481.13;;;2.83;82.41
12868;BME280;33517;49.866;8.320;2022-12-10T00:44:33;99478.53;;;2.83;82.70
12868;BME280;33517;49.866;8.320;2022-12-10T00:47:25;99483.03;;;2.81;82.75
12868;BME280;33517;49.866;8.320;2022-12-10T00:50:17;99479.22;;;2.75;83.19
12868;BME280;33517;49.866;8.320;2022-12-10T00:53:09;99478.53;;;2.73;83.24
12868;BME280;33517;49.866;8.320;2022-12-10T00:56:03;99481.81;;;2.75;83.24
12868;BME280;33517;49.866;8.320;2022-12-10T00:58:55;99485.91;;;2.78;83.18
12868;BME280;33517;49.866;8.320;2022-12-10T01:01:47;99485.22;;;2.76;83.22
12868;BME280;33517;49.866;8.320;2022-12-10T01:04:39;99497.53;;;2.74;82.89
12868;BME280;33517;49.866;8.320;2022-12-10T01:07:31;99486.44;;;2.72;83.37
12868;BME280;33517;49.866;8.320;2022-12-10T01:10:23;99488.50;;;2.68;83.25
12868;BME280;33517;49.866;8.320;2022-12-10T01:13:16;99488.66;;;2.67;83.41
12868;BME280;33517;49.866;8.320;2022-12-10T01:16:09;99497.13;;;2.69;83.05
12868;BME280;33517;49.866;8.320;2022-12-10T01:19:02;99497.28;;;2.67;83.11
12868;BME280;33517;49.866;8.320;2022-12-10T01:21:55;99502.72;;;2.64;83.20
12868;BME280;33517;49.866;8.320;2022-12-10T01:24:47;99496.84;;;2.62;83.21
12868;BME280;33517;49.866;8.320;2022-12-10T01:27:39;99503.94;;;2.60;82.95
12868;BME280;33517;49.866;8.320;2022-12-10T01:30:33;99508.59;;;2.57;83.46
12868;BME280;33517;49.866;8.320;2022-12-10T01:33:25;99519.97;;;2.56;83.25
12868;BME280;33517;49.866;8.320;2022-12-10T01:36:18;99520.34;;;2.51;83.11
12868;BME280;33517;49.866;8.320;2022-12-10T01:39:13;99525.41;;;2.53;83.66
12868;BME280;33517;49.866;8.320;2022-12-10T01:42:05;99526.38;;;2.52;83.22
12868;BME280;33517;49.866;8.320;2022-12-10T01:45:07;99534.31;;;2.50;83.56
12868;BME280;33517;49.866;8.320;2022-12-10T01:48:01;99533.63;;;2.48;83.45
12868;BME280;33517;49.866;8.320;2022-12-10T01:50:53;99541.56;;;2.47;83.31
12868;BME280;33517;49.866;8.320;2022-12-10T01:53:46;99543.31;;;2.46;83.85
12868;BME280;33517;49.866;8.320;2022-12-10T01:56:45;99539.06;;;2.45;83.65
12868;BME280;33517;49.866;8.320;2022-12-10T01:59:38;99540.88;;;2.45;83.57
12868;BME280;33517;49.866;8.320;2022-12-10T02:02:38;99539.34;;;2.42;83.62
12868;BME280;33517;49.866;8.320;2022-12-10T02:05:40;99538.66;;;2.40;83.60
12868;BME280;33517;49.866;8.320;2022-12-10T02:08:39;99538.38;;;2.34;83.76
12868;BME280;33517;49.866;8.320;2022-12-10T02:11:40;99531.09;;;2.28;83.47
12868;BME280;33517;49.866;8.320;2022-12-10T02:14:51;99535.91;;;2.23;83.83
12868;BME280;33517;49.866;8.320;2022-12-10T02:17:47;99538.91;;;2.28;83.72
12868;BME280;33517;49.866;8.320;2022-12-10T02:20:44;99537.41;;;2.25;84.08
12868;BME280;33517;49.866;8.320;2022-12-10T02:23:40;99532.38;;;2.24;83.74
12868;BME280;33517;49.866;8.320;2022-12-10T02:26:40;99534.97;;;2.24;84.07
12868;BME280;33517;49.866;8.320;2022-12-10T02:29:36;99540.16;;;2.24;84.06
12868;BME280;33517;49.866;8.320;2022-12-10T02:32:32;99542.06;;;2.22;83.48
12868;BME280;33517;49.866;8.320;2022-12-10T02:35:27;99542.75;;;2.24;84.04
12868;BME280;33517;49.866;8.320;2022-12-10T02:38:25;99544.75;;;2.20;83.99
12868;BME280;33517;49.866;8.320;2022-12-10T02:41:20;99546.81;;;2.17;84.10
12868;BME280;33517;49.866;8.320;2022-12-10T02:44:16;99543.81;;;2.12;83.93
12868;BME280;33517;49.866;8.320;2022-12-10T02:47:11;99542.56;;;2.06;84.30
12868;BME280;33517;49.866;8.320;2022-12-10T02:50:06;99541.59;;;2.07;84.12
12868;BME280;33517;49.866;8.320;2022-12-10T02:52:59;99536.53;;;2.06;84.02
12868;BME280;33517;49.866;8.320;2022-12-10T02:56:00;99540.22;;;2.03;83.72
12868;BME280;33517;49.866;8.320;2022-12-10T02:59:05;99542.69;;;2.05;83.98
12868;BME280;33517;49.866;8.320;2022-12-10T03:02:02;99537.38;;;2.06;84.16
12868;BME280;33517;49.866;8.320;2022-12-10T03:05:03;99544.19;;;2.07;83.60
12868;BME280;33517;49.866;8.320;2022-12-10T03:08:02;99539.00;;;2.07;83.48
12868;BME280;33517;49.866;8.320;2022-12-10T03:10:59;99539.28;;;2.04;83.83
12868;BME280;33517;49.866;8.320;2022-12-10T03:13:57;99540.50;;;2.00;83.64
12868;BME280;33517;49.866;8.320;2022-12-10T03:16:54;99530.38;;;1.97;84.06
12868;BME280;33517;49.866;8.320;2022-12-10T03:19:48;99529.56;;;1.97;83.59
12868;BME280;33517;49.866;8.320;2022-12-10T03:22:46;99526.00;;;1.98;83.92
12868;BME280;33517;49.866;8.320;2022-12-10T03:25:38;99527.91;;;1.96;84.24
12868;BME280;33517;49.866;8.320;2022-12-10T03:28:34;99529.13;;;1.92;83.74
12868;BME280;33517;49.866;8.320;2022-12-10T03:31:29;99522.69;;;1.86;83.57
12868;BME280;33517;49.866;8.320;2022-12-10T03:34:22;99518.03;;;1.80;83.99
12868;BME280;33517;49.866;8.320;2022-12-10T03:37:14;99521.16;;;1.74;84.15
12868;BME280;33517;49.866;8.320;2022-12-10T03:40:09;99518.25;;;1.67;84.25
12868;BME280;33517;49.866;8.320;2022-12-10T03:43:02;99521.69;;;1.68;83.85
12868;BME280;33517;49.866;8.320;2022-12-10T03:45:54;99520.84;;;1.67;84.02
12868;BME280;33517;49.866;8.320;2022-12-10T03:48:46;99524.41;;;1.66;83.94
12868;BME280;33517;49.866;8.320;2022-12-10T03:51:38;99532.44;;;1.63;84.22
12868;BME280;33517;49.866;8.320;2022-12-10T03:54:30;99536.69;;;1.64;84.05
12868;BME280;33517;49.866;8.320;2022-12-10T03:57:23;99539.66;;;1.60;84.22
12868;BME280;33517;49.866;8.320;2022-12-10T04:00:15;99542.94;;;1.62;84.26
12868;BME280;33517;49.866;8.320;2022-12-10T04:03:07;99547.31;;;1.61;84.34
12868;BME280;33517;49.866;8.320;2022-12-10T04:06:01;99537.19;;;1.58;84.47
12868;BME280;33517;49.866;8.320;2022-12-10T04:08:53;99536.09;;;1.61;83.88
12868;BME280;33517;49.866;8.320;2022-12-10T04:11:45;99544.16;;;1.58;84.15
12868;BME280;33517;49.866;8.320;2022-12-10T04:14:38;99544.28;;;1.56;84.32
12868;BME280;33517;49.866;8.320;2022-12-10T04:17:50;99544.28;;;1.56;84.41
12868;BME280;33517;49.866;8.320;2022-12-10T04:20:43;99545.50;;;1.52;84.21
12868;BME280;33517;49.866;8.320;2022-12-10T04:23:52;99549.59;;;1.55;84.24
12868;BME280;33517;49.866;8.320;2022-12-10T04:27:04;99545.13;;;1.57;83.84
12868;BME280;33517;49.866;8.320;2022-12-10T04:29:59;99550.53;;;1.54;84.17
12868;BME280;33517;49.866;8.320;2022-12-10T04:32:51;99548.78;;;1.54;84.16
12868;BME280;33517;49.866;8.320;2022-12-10T04:35:43;99549.41;;;1.47;83.78
12868;BME280;33517;49.866;8.320;2022-12-10T04:38:35;99558.13;;;1.46;83.95
12868;BME280;33517;49.866;8.320;2022-12-10T04:41:26;99552.00;;;1.47;84.28
12868;BME280;33517;49.866;8.320;2022-12-10T04:44:19;99552.25;;;1.44;84.27
12868;BME280;33517;49.866;8.320;2022-12-10T04:47:12;99552.94;;;1.46;84.01
12868;BME280;33517;49.866;8.320;2022-12-10T04:50:05;99551.69;;;1.40;84.36
12868;BME280;33517;49.866;8.320;2022-12-10T04:52:57;99550.06;;;1.39;84.18
12868;BME280;33517;49.866;8.320;2022-12-10T04:55:49;99557.56;;;1.42;84.17
12868;BME280;33517;49.866;8.320;2022-12-10T04:58:41;99554.97;;;1.42;83.60
12868;BME280;33517;49.866;8.320;2022-12-10T05:01:33;99550.63;;;1.43;84.04
12868;BME280;33517;49.866;8.320;2022-12-10T05:04:26;99559.94;;;1.45;83.37
12868;BME280;33517;49.866;8.320;2022-12-10T05:07:18;99559.47;;;1.40;83.53
12868;BME280;33517;49.866;8.320;2022-12-10T05:10:10;99564.78;;;1.39;84.09
12868;BME280;33517;49.866;8.320;2022-12-10T05:13:02;99569.00;;;1.40;83.79
12868;BME280;33517;49.866;8.320;2022-12-10T05:15:53;99567.38;;;1.39;83.40
12868;BME280;33517;49.866;8.320;2022-12-10T05:18:46;99568.44;;;1.36;83.85
12868;BME280;33517;49.866;8.320;2022-12-10T05:21:39;99571.72;;;1.38;83.85
12868;BME280;33517;49.866;8.320;2022-12-10T05:24:48;99572.44;;;1.40;83.87
12868;BME280;33517;49.866;8.320;2022-12-10T05:27:40;99576.91;;;1.38;83.67
12868;BME280;33517;49.866;8.320;2022-12-10T05:30:34;99581.03;;;1.41;83.84
12868;BME280;33517;49.866;8.320;2022-12-10T05:33:27;99581.97;;;1.40;83.92
12868;BME280;33517;49.866;8.320;2022-12-10T05:36:21;99573.91;;;1.33;83.85
12868;BME280;33517;49.866;8.320;2022-12-10T05:39:14;99586.16;;;1.31;84.23
12868;BME280;33517;49.866;8.320;2022-12-10T05:42:06;99587.03;;;1.21;84.19
12868;BME280;33517;49.866;8.320;2022-12-10T05:44:58;99594.63;;;1.13;84.88
12868;BME280;33517;49.866;8.320;2022-12-10T05:47:50;99596.88;;;1.06;84.73
12868;BME280;33517;49.866;8.320;2022-12-10T05:50:42;99595.81;;;1.09;85.50
12868;BME280;33517;49.866;8.320;2022-12-10T05:53:34;99601.81;;;1.09;85.15
12868;BME280;33517;49.866;8.320;2022-12-10T05:56:27;99598.91;;;1.03;85.42
12868;BME280;33517;49.866;8.320;2022-12-10T05:59:19;99603.75;;;0.96;86.03
12868;BME280;33517;49.866;8.320;2022-12-10T06:02:11;99607.16;;;0.97;86.27
12868;BME280;33517;49.866;8.320;2022-12-10T06:05:03;99609.63;;;0.98;85.92
12868;BME280;33517;49.866;8.320;2022-12-10T06:07:55;99609.28;;;1.03;85.23
12868;BME280;33517;49.866;8.320;2022-12-10T06:10:47;99612.41;;;0.85;85.13
12868;BME280;33517;49.866;8.320;2022-12-10T06:13:40;99607.13;;;0.76;85.97
12868;BME280;33517;49.866;8.320;2022-12-10T06:16:32;99613.06;;;0.67;85.64
12868;BME280;33517;49.866;8.320;2022-12-10T06:19:24;99618.84;;;0.48;85.39
12868;BME280;33517;49.866;8.320;2022-12-10T06:22:16;99618.88;;;0.37;85.97
12868;BME280;33517;49.866;8.320;2022-12-10T06:25:08;99623.72;;;0.20;86.87
12868;BME280;33517;49.866;8.320;2022-12-10T06:28:00;99634.19;;;0.07;87.31
12868;BME280;33517;49.866;8.320;2022-12-10T06:30:53;99625.63;;;-0.05;88.08
12868;BME280;33517;49.866;8.320;2022-12-10T06:33:45;99630.91;;;-0.06;88.15
12868;BME280;33517;49.866;8.320;2022-12-10T06:36:37;99629.25;;;0.04;88.75
12868;BME280;33517;49.866;8.320;2022-12-10T06:39:29;99631.94;;;0.14;87.78
12868;BME280;33517;49.866;8.320;2022-12-10T06:42:21;99640.19;;;0.19;88.07
12868;BME280;33517;49.866;8.320;2022-12-10T06:45:13;99636.53;;;0.21;87.29
12868;BME280;33517;49.866;8.320;2022-12-10T06:48:06;99638.63;;;0.27;87.08
12868;BME280;33517;49.866;8.320;2022-12-10T06:50:58;99643.94;;;0.26;88.01
12868;BME280;33517;49.866;8.320;2022-12-10T06:53:50;99646.06;;;0.32;87.98
12868;BME280;33517;49.866;8.320;2022-12-10T06:56:42;99648.16;;;0.38;87.63
12868;BME280;33517;49.866;8.320;2022-12-10T06:59:34;99652.88;;;0.44;87.72
12868;BME280;33517;49.866;8.320;2022-12-10T07:02:26;99653.66;;;0.44;87.47
12868;BME280;33517;49.866;8.320;2022-12-10T07:05:19;99648.75;;;0.41;87.05
12868;BME280;33517;49.866;8.320;2022-12-10T07:08:11;99656.25;;;0.44;87.43
12868;BME280;33517;49.866;8.320;2022-12-10T07:11:04;99655.91;;;0.49;87.25
12868;BME280;33517;49.866;8.320;2022-12-10T07:13:56;99660.59;;;0.55;86.95
12868;BME280;33517;49.866;8.320;2022-12-10T07:16:48;99661.19;;;0.58;86.78
12868;BME280;33517;49.866;8.320;2022-12-10T07:19:40;99667.81;;;0.51;86.90
12868;BME280;33517;49.866;8.320;2022-12-10T07:22:33;99667.53;;;0.54;86.08
12868;BME280;33517;49.866;8.320;2022-12-10T07:25:25;99675.88;;;0.58;86.64
12868;BME280;33517;49.866;8.320;2022-12-10T07:28:17;99672.25;;;0.60;86.54
12868;BME280;33517;49.866;8.320;2022-12-10T07:31:09;99675.66;;;0.61;85.95
12868;BME280;33517;49.866;8.320;2022-12-10T07:34:01;99684.94;;;0.63;85.62
12868;BME280;33517;49.866;8.320;2022-12-10T07:36:53;99681.41;;;0.64;86.08
12868;BME280;33517;49.866;8.320;2022-12-10T07:39:46;99679.41;;;0.68;85.92
12868;BME280;33517;49.866;8.320;2022-12-10T07:42:38;99688.31;;;0.75;85.51
12868;BME280;33517;49.866;8.320;2022-12-10T07:45:30;99694.44;;;0.85;85.79
12868;BME280;33517;49.866;8.320;2022-12-10T07:48:22;99695.13;;;0.87;85.97
12868;BME280;33517;49.866;8.320;2022-12-10T07:51:16;99695.97;;;0.87;86.11
12868;BME280;33517;49.866;8.320;2022-12-10T07:54:08;99700.53;;;0.95;85.53
12868;BME280;33517;49.866;8.320;2022-12-10T07:57:01;99703.69;;;0.99;85.81
12868;BME280;33517;49.866;8.320;2022-12-10T07:59:53;99705.69;;;1.06;85.73
12868;BME280;33517;49.866;8.320;2022-12-10T08:02:45;99708.00;;;1.09;85.65
12868;BME280;33517;49.866;8.320;2022-12-10T08:05:38;99710.13;;;1.15;85.35
12868;BME280;33517;49.866;8.320;2022-12-10T08:08:30;99710.09;;;1.26;86.07
12868;BME280;33517;49.866;8.320;2022-12-10T08:11:22;99716.66;;;1.30;85.46
12868;BME280;33517;49.866;8.320;2022-12-10T08:14:15;99718.72;;;1.47;84.88
12868;BME280;33517;49.866;8.320;2022-12-10T08:17:07;99711.97;;;1.56;84.83
12868;BME280;33517;49.866;8.320;2022-12-10T08:19:59;99712.78;;;1.56;85.01
12868;BME280;33517;49.866;8.320;2022-12-10T08:22:51;99725.81;;;1.45;84.83
12868;BME280;33517;49.866;8.320;2022-12-10T08:25:43;99727.63;;;1.34;84.57
12868;BME280;33517;49.866;8.320;2022-12-10T08:28:35;99727.94;;;1.40;85.33
12868;BME280;33517;49.866;8.320;2022-12-10T08:31:29;99724.91;;;1.56;85.36
12868;BME280;33517;49.866;8.320;2022-12-10T08:34:21;99729.47;;;1.43;84.11
12868;BME280;33517;49.866;8.320;2022-12-10T08:37:13;99733.53;;;1.25;84.00
12868;BME280;33517;49.866;8.320;2022-12-10T08:40:05;99729.19;;;1.46;84.86
12868;BME280;33517;49.866;8.320;2022-12-10T08:42:57;99737.09;;;1.44;83.82
12868;BME280;33517;49.866;8.320;2022-12-10T08:45:49;99735.78;;;1.50;84.19
12868;BME280;33517;49.866;8.320;2022-12-10T08:48:42;99742.88;;;1.68;83.70
12868;BME280;33517;49.866;8.320;2022-12-10T08:51:34;99748.28;;;1.76;84.34
12868;BME280;33517;49.866;8.320;2022-12-10T08:54:26;99748.16;;;1.99;84.35
12868;BME280;33517;49.866;8.320;2022-12-10T08:57:18;99743.84;;;2.09;83.06
12868;BME280;33517;49.866;8.320;2022-12-10T09:00:11;99740.72;;;2.15;83.35
12868;BME280;33517;49.866;8.320;2022-12-10T09:03:04;99745.41;;;2.21;82.72
12868;BME280;33517;49.866;8.320;2022-12-10T09:06:01;99738.38;;;2.32;82.34
12868;BME280;33517;49.866;8.320;2022-12-10T09:08:54;99744.34;;;2.53;82.15
12868;BME280;33517;49.866;8.320;2022-12-10T09:11:46;99743.00;;;2.59;81.65
12868;BME280;33517;49.866;8.320;2022-12-10T09:14:37;99748.47;;;2.56;81.98
12868;BME280;33517;49.866;8.320;2022-12-10T09:17:31;99742.91;;;2.79;81.51
12868;BME280;33517;49.866;8.320;2022-12-10T09:20:23;99744.50;;;3.01;80.94
12868;BME280;33517;49.866;8.320;2022-12-10T09:23:16;99746.72;;;3.25;80.10
12868;BME280;33517;49.866;8.320;2022-12-10T09:26:09;99742.47;;;3.24;79.57
12868;BME280;33517;49.866;8.320;2022-12-10T09:29:01;99742.63;;;3.60;79.83
12868;BME280;33517;49.866;8.320;2022-12-10T09:31:53;99752.75;;;4.02;79.13
12868;BME280;33517;49.866;8.320;2022-12-10T09:34:45;99747.50;;;4.21;78.13
12868;BME280;33517;49.866;8.320;2022-12-10T09:37:37;99746.97;;;4.54;77.27
12868;BME280;33517;49.866;8.320;2022-12-10T09:40:35;99737.91;;;4.58;75.52
12868;BME280;33517;49.866;8.320;2022-12-10T09:43:41;99736.41;;;4.55;74.79
12868;BME280;33517;49.866;8.320;2022-12-10T09:46:45;99727.06;;;4.90;74.19
12868;BME280;33517;49.866;8.320;2022-12-10T09:49:52;99728.38;;;5.21;73.63
12868;BME280;33517;49.866;8.320;2022-12-10T09:52:48;99730.34;;;5.09;71.79
12868;BME280;33517;49.866;8.320;2022-12-10T09:55:46;99733.03;;;5.00;72.13
12868;BME280;33517;49.866;8.320;2022-12-10T09:58:38;99738.34;;;4.81;71.97
12868;BME280;33517;49.866;8.320;2022-12-10T10:01:32;99741.75;;;4.08;71.90
12868;BME280;33517;49.866;8.320;2022-12-10T10:04:25;99744.56;;;3.68;73.78
12868;BME280;33517;49.866;8.320;2022-12-10T10:07:21;99737.59;;;3.49;74.82
12868;BME280;33517;49.866;8.320;2022-12-10T10:10:21;99746.06;;;3.51;75.06
12868;BME280;33517;49.866;8.320;2022-12-10T10:13:30;99750.28;;;3.52;74.84
12868;BME280;33517;49.866;8.320;2022-12-10T10:16:25;99753.88;;;3.61;75.25
12868;BME280;33517;49.866;8.320;2022-12-10T10:19:21;99755.38;;;3.44;75.45
12868;BME280;33517;49.866;8.320;2022-12-10T10:22:16;99755.78;;;3.59;76.06
12868;BME280;33517;49.866;8.320;2022-12-10T10:25:13;99751.94;;;3.72;76.13
12868;BME280;33517;49.866;8.320;2022-12-10T10:28:05;99752.09;;;3.81;76.14
12868;BME280;33517;49.866;8.320;2022-12-10T10:30:58;99750.72;;;3.77;76.04
12868;BME280;33517;49.866;8.320;2022-12-10T10:33:52;99749.63;;;3.50;76.65
12868;BME280;33517;49.866;8.320;2022-12-10T10:36:47;99745.94;;;3.62;76.29
12868;BME280;33517;49.866;8.320;2022-12-10T10:39:48;99745.94;;;3.53;76.49
12868;BME280;33517;49.866;8.320;2022-12-10T10:42:42;99745.66;;;3.75;76.44
12868;BME280;33517;49.866;8.320;2022-12-10T10:45:39;99744.91;;;4.21;75.98
12868;BME280;33517;49.866;8.320;2022-12-10T10:48:33;99747.19;;;4.33;74.95
12868;BME280;33517;49.866;8.320;2022-12-10T10:51:25;99748.91;;;4.06;74.93
12868;BME280;33517;49.866;8.320;2022-12-10T10:54:35;99754.09;;;4.15;75.76
12868;BME280;33517;49.866;8.320;2022-12-10T10:57:34;99750.31;;;4.37;74.90
12868;BME280;33517;49.866;8.320;2022-12-10T11:00:27;99749.53;;;4.27;74.46
12868;BME280;33517;49.866;8.320;2022-12-10T11:03:19;99753.94;;;4.26;75.22
12868;BME280;33517;49.866;8.320;2022-12-10T11:06:12;99746.13;;;4.26;75.06
12868;BME280;33517;49.866;8.320;2022-12-10T11:09:04;99748.16;;;4.32;76.04
12868;BME280;33517;49.866;8.320;2022-12-10T11:11:59;99746.63;;;4.39;74.37
12868;BME280;33517;49.866;8.320;2022-12-10T11:14:51;99745.19;;;4.54;74.20
12868;BME280;33517;49.866;8.320;2022-12-10T11:17:47;99743.44;;;4.82;73.38
12868;BME280;33517;49.866;8.320;2022-12-10T11:20:39;99746.78;;;4.75;73.76
12868;BME280;33517;49.866;8.320;2022-12-10T11:23:38;99750.38;;;4.91;73.56
12868;BME280;33517;49.866;8.320;2022-12-10T11:26:40;99752.09;;;4.73;73.76
12868;BME280;33517;49.866;8.320;2022-12-10T11:29:51;99758.34;;;4.62;73.23
12868;BME280;33517;49.866;8.320;2022-12-10T11:33:11;99758.22;;;4.54;72.69
12868;BME280;33517;49.866;8.320;2022-12-10T11:36:17;99752.81;;;4.65;73.13
12868;BME280;33517;49.866;8.320;2022-12-10T11:39:25;99751.81;;;4.76;73.08
12868;BME280;33517;49.866;8.320;2022-12-10T11:42:28;99748.81;;;4.98;72.52
12868;BME280;33517;49.866;8.320;2022-12-10T11:45:24;99745.63;;;5.04;71.96
12868;BME280;33517;49.866;8.320;2022-12-10T11:48:29;99739.25;;;5.51;71.80
12868;BME280;33517;49.866;8.320;2022-12-10T11:51:32;99745.06;;;6.24;69.96
12868;BME280;33517;49.866;8.320;2022-12-10T11:54:51;99745.06;;;6.83;70.35
12868;BME280;33517;49.866;8.320;2022-12-10T11:57:48;99741.03;;;6.97;68.18
12868;BME280;33517;49.866;8.320;2022-12-10T12:00:52;99742.34;;;6.59;69.13
12868;BME280;33517;49.866;8.320;2022-12-10T12:03:58;99752.34;;;6.38;67.81
12868;BME280;33517;49.866;8.320;2022-12-10T12:07:02;99754.34;;;5.93;69.01
12868;BME280;33517;49.866;8.320;2022-12-10T12:10:16;99760.31;;;5.68;70.02
12868;BME280;33517;49.866;8.320;2022-12-10T12:13:15;99760.88;;;5.44;69.91
12868;BME280;33517;49.866;8.320;2022-12-10T12:16:12;99761.22;;;5.14;70.08
12868;BME280;33517;49.866;8.320;2022-12-10T12:19:12;99755.78;;;4.80;69.52
12868;BME280;33517;49.866;8.320;2022-12-10T12:22:23;99764.34;;;4.73;70.26
12868;BME280;33517;49.866;8.320;2022-12-10T12:25:21;99757.41;;;4.81;70.94
12868;BME280;33517;49.866;8.320;2022-12-10T12:28:20;99766.72;;;4.56;70.30
12868;BME280;33517;49.866;8.320;2022-12-10T12:31:15;99766.78;;;4.37;70.67
12868;BME280;33517;49.866;8.320;2022-12-10T12:34:15;99763.56;;;4.53;71.14
12868;BME280;33517;49.866;8.320;2022-12-10T12:37:11;99755.91;;;4.79;70.30
12868;BME280;33517;49.866;8.320;2022-12-10T12:40:11;99759.97;;;5.18;69.29
12868;BME280;33517;49.866;8.320;2022-12-10T12:43:09;99751.94;;;5.82;68.88
12868;BME280;33517;49.866;8.320;2022-12-10T12:46:10;99757.06;;;6.34;68.53
12868;BME280;33517;49.866;8.320;2022-12-10T12:49:10;99750.81;;;6.53;67.15
12868;BME280;33517;49.866;8.320;2022-12-10T12:52:14;99754.03;;;6.47;67.42
12868;BME280;33517;49.866;8.320;2022-12-10T12:55:16;99759.63;;;6.01;66.11
12868;BME280;33517;49.866;8.320;2022-12-10T12:58:19;99762.75;;;5.51;68.08
12868;BME280;33517;49.866;8.320;2022-12-10T13:01:22;99770.88;;;5.48;68.04
12868;BME280;33517;49.866;8.320;2022-12-10T13:04:18;99766.22;;;5.25;68.47
12868;BME280;33517;49.866;8.320;2022-12-10T13:07:29;99768.53;;;5.10;69.02
12868;BME280;33517;49.866;8.320;2022-12-10T13:10:24;99770.78;;;5.23;68.79
12868;BME280;33517;49.866;8.320;2022-12-10T13:13:23;99776.31;;;5.37;69.15
12868;BME280;33517;49.866;8.320;2022-12-10T13:16:36;99774.91;;;5.43;67.88
12868;BME280;33517;49.866;8.320;2022-12-10T13:19:37;99777.06;;;5.47;68.37
12868;BME280;33517;49.866;8.320;2022-12-10T13:22:43;99780.22;;;5.51;68.20
12868;BME280;33517;49.866;8.320;2022-12-10T13:25:55;99775.66;;;5.35;68.27
12868;BME280;33517;49.866;8.320;2022-12-10T13:28:51;99776.72;;;4.88;68.56
12868;BME280;33517;49.866;8.320;2022-12-10T13:31:55;99795.75;;;4.61;69.77
12868;BME280;33517;49.866;8.320;2022-12-10T13:35:24;99793.31;;;4.50;70.13
12868;BME280;33517;49.866;8.320;2022-12-10T13:38:19;99789.81;;;4.42;70.58
12868;BME280;33517;49.866;8.320;2022-12-10T13:41:12;99795.56;;;4.36;70.25
12868;BME280;33517;49.866;8.320;2022-12-10T13:44:33;99797.66;;;4.23;70.50
12868;BME280;33517;49.866;8.320;2022-12-10T13:47:31;99804.53;;;4.05;70.45
12868;BME280;33517;49.866;8.320;2022-12-10T13:50:32;99805.88;;;4.09;70.15
12868;BME280;33517;49.866;8.320;2022-12-10T13:53:36;99810.13;;;4.00;70.14
12868;BME280;33517;49.866;8.320;2022-12-10T13:56:40;99812.19;;;3.97;69.93
12868;BME280;33517;49.866;8.320;2022-12-10T13:59:41;99816.84;;;4.03;69.79
12868;BME280;33517;49.866;8.320;2022-12-10T14:02:54;99823.56;;;4.24;69.80
12868;BME280;33517;49.866;8.320;2022-12-10T14:05:55;99827.38;;;4.39;68.75
12868;BME280;33517;49.866;8.320;2022-12-10T14:09:00;99828.84;;;4.51;69.56
12868;BME280;33517;49.866;8.320;2022-12-10T14:11:56;99831.16;;;4.54;69.17
12868;BME280;33517;49.866;8.320;2022-12-10T14:14:55;99841.91;;;4.42;69.48
12868;BME280;33517;49.866;8.320;2022-12-10T14:17:49;99835.31;;;4.38;69.78
12868;BME280;33517;49.866;8.320;2022-12-10T14:20:45;99842.31;;;4.28;69.68
12868;BME280;33517;49.866;8.320;2022-12-10T14:23:43;99854.38;;;4.19;70.12
12868;BME280;33517;49.866;8.320;2022-12-10T14:26:37;99851.38;;;4.05;70.52
12868;BME280;33517;49.866;8.320;2022-12-10T14:29:29;99853.59;;;4.00;71.04
12868;BME280;33517;49.866;8.320;2022-12-10T14:32:27;99855.22;;;3.91;71.40
12868;BME280;33517;49.866;8.320;2022-12-10T14:35:23;99856.97;;;3.91;71.48
12868;BME280;33517;49.866;8.320;2022-12-10T14:38:18;99867.00;;;3.86;71.59
12868;BME280;33517;49.866;8.320;2022-12-10T14:41:14;99865.34;;;3.85;71.40
12868;BME280;33517;49.866;8.320;2022-12-10T14:44:11;99863.13;;;3.70;71.18
12868;BME280;33517;49.866;8.320;2022-12-10T14:47:10;99871.06;;;3.50;71.54
12868;BME280;33517;49.866;8.320;2022-12-10T14:50:10;99873.25;;;3.15;72.01
12868;BME280;33517;49.866;8.320;2022-12-10T14:53:05;99876.44;;;2.88;72.85
12868;BME280;33517;49.866;8.320;2022-12-10T14:55:59;99874.22;;;2.63;73.23
12868;BME280;33517;49.866;8.320;2022-12-10T14:58:56;99882.53;;;2.36;73.70
12868;BME280;33517;49.866;8.320;2022-12-10T15:01:51;99890.31;;;2.16;74.21
12868;BME280;33517;49.866;8.320;2022-12-10T15:04:47;99886.72;;;1.96;74.55
12868;BME280;33517;49.866;8.320;2022-12-10T15:07:41;99885.50;;;1.79;75.66
12868;BME280;33517;49.866;8.320;2022-12-10T15:10:36;99880.56;;;1.65;75.65
12868;BME280;33517;49.866;8.320;2022-12-10T15:13:33;99891.09;;;1.53;75.91
12868;BME280;33517;49.866;8.320;2022-12-10T15:16:31;99890.16;;;1.43;76.74
12868;BME280;33517;49.866;8.320;2022-12-10T15:19:32;99889.22;;;1.33;76.54
12868;BME280;33517;49.866;8.320;2022-12-10T15:22:26;99888.91;;;1.26;76.72
12868;BME280;33517;49.866;8.320;2022-12-10T15:25:25;99891.13;;;1.20;77.21
12868;BME280;33517;49.866;8.320;2022-12-10T15:28:26;99892.75;;;1.21;77.45
12868;BME280;33517;49.866;8.320;2022-12-10T15:31:21;99894.09;;;1.26;77.56
12868;BME280;33517;49.866;8.320;2022-12-10T15:34:14;99895.47;;;1.30;77.65
12868;BME280;33517;49.866;8.320;2022-12-10T15:37:14;99891.69;;;1.34;77.87
12868;BME280;33517;49.866;8.320;2022-12-10T15:40:23;99902.75;;;1.36;77.92
12868;BME280;33517;49.866;8.320;2022-12-10T15:43:25;99899.47;;;1.34;77.54